Time;durP1;ratioP1;P1;durP2;ratioP2;P2;SDS_P1;SDS_P2;PMS_P1;PMS_P2;Temp;Humidity;BMP_temperature;BMP_pressure;BME280_temperature;BME280_humidity;BME280_pressure;Samples;Min_cycle;Max_cycle;Signal;HPM_P1;HPM_P2
2021/04/10 00:00:45;;;;;;;0.20;0.20;;;;;;;6.56;62.69;99425.94;5115669;28;20035;-59
2021/04/10 00:03:11;;;;;;;0.20;0.20;;;;;;;6.61;62.63;99432.50;5115561;28;20055;-61
2021/04/10 00:05:37;;;;;;;0.10;0.10;;;;;;;6.70;62.50;99435.09;5115637;28;20508;-59
2021/04/10 00:08:03;;;;;;;0.28;0.28;;;;;;;6.74;62.43;99447.31;5115658;28;20051;-60
2021/04/10 00:10:30;;;;;;;0.28;0.28;;;;;;;6.78;62.37;99449.44;5115464;28;20047;-58
2021/04/10 00:12:57;;;;;;;0.35;0.35;;;;;;;6.83;62.25;99446.13;5115178;28;20059;-59
2021/04/10 00:15:24;;;;;;;0.20;0.20;;;;;;;6.84;62.27;99456.03;5115667;28;20040;-60
2021/04/10 00:17:50;;;;;;;0.55;0.22;;;;;;;6.81;62.34;99468.16;5115453;28;20424;-59
2021/04/10 00:20:18;;;;;;;1.15;0.88;;;;;;;6.80;62.17;99469.22;5115532;28;20081;-60
2021/04/10 00:22:44;;;;;;;0.35;0.35;;;;;;;6.77;62.55;99469.63;5115274;28;20046;-59
2021/04/10 00:25:11;;;;;;;0.30;0.30;;;;;;;6.73;62.47;99467.44;5115252;28;20036;-60
2021/04/10 00:27:38;;;;;;;0.63;0.63;;;;;;;6.66;62.75;99467.38;5115482;28;20044;-60
2021/04/10 00:30:07;;;;;;;0.68;0.68;;;;;;;6.62;62.74;99464.19;5115417;28;20058;-59
2021/04/10 00:32:32;;;;;;;0.20;0.20;;;;;;;6.62;62.67;99469.66;5097007;28;20497;-58
2021/04/10 00:34:58;;;;;;;0.15;0.15;;;;;;;6.62;62.71;99463.34;5115159;28;20040;-59
2021/04/10 00:37:24;;;;;;;0.10;0.10;;;;;;;6.60;62.85;99465.44;5115119;28;20054;-59
2021/04/10 00:39:50;;;;;;;0.20;0.20;;;;;;;6.56;62.93;99470.41;5114996;28;20509;-59
2021/04/10 00:42:15;;;;;;;0.60;0.60;;;;;;;6.52;63.07;99476.47;5115093;28;20055;-60
2021/04/10 00:44:41;;;;;;;0.10;0.10;;;;;;;6.44;63.18;99475.53;5115125;28;20055;-60
2021/04/10 00:47:07;;;;;;;0.85;0.85;;;;;;;6.37;63.24;99481.94;5114642;28;20409;-60
2021/04/10 00:49:33;;;;;;;0.30;0.30;;;;;;;6.31;63.39;99481.66;5115367;28;20074;-58
2021/04/10 00:51:59;;;;;;;0.20;0.20;;;;;;;6.24;63.48;99488.94;5096443;28;20055;-59
2021/04/10 00:54:25;;;;;;;0.90;0.90;;;;;;;6.21;63.51;99492.03;5114641;28;20416;-59
2021/04/10 00:56:51;;;;;;;0.20;0.20;;;;;;;6.18;63.58;99486.13;5114447;28;20052;-60
2021/04/10 00:59:17;;;;;;;0.20;0.20;;;;;;;6.14;63.63;99486.50;5114784;28;20626;-59
2021/04/10 01:01:43;;;;;;;0.20;0.20;;;;;;;6.12;63.63;99485.84;5114545;28;20048;-59
2021/04/10 01:04:09;;;;;;;0.40;0.40;;;;;;;6.08;63.75;99490.00;5114523;28;20052;-60
2021/04/10 01:06:34;;;;;;;0.20;0.20;;;;;;;6.06;63.81;99480.31;5114267;28;20134;-58
2021/04/10 01:09:00;;;;;;;0.73;0.68;;;;;;;6.04;63.90;99479.66;5114622;28;20050;-59
2021/04/10 01:11:44;;;;;;;0.10;0.10;;;;;;;6.02;63.93;99478.97;5114505;28;20040;-59
2021/04/10 01:14:22;;;;;;;0.33;0.33;;;;;;;6.02;63.95;99476.25;5114282;28;20059;-59
2021/04/10 01:17:38;;;;;;;0.63;0.63;;;;;;;6.09;63.61;99477.19;5114499;28;20301;-60
2021/04/10 01:20:15;;;;;;;0.20;0.20;;;;;;;6.11;63.46;99486.00;5031757;28;20068;-59
2021/04/10 01:23:14;;;;;;;0.20;0.20;;;;;;;6.20;63.20;99482.16;5015217;28;20049;-60
2021/04/10 01:25:52;;;;;;;0.40;0.40;;;;;;;6.35;62.76;99492.22;5031748;28;20474;-60
2021/04/10 01:29:01;;;;;;;0.65;0.65;;;;;;;6.49;62.48;99489.47;5030801;28;20062;-59
2021/04/10 01:31:40;;;;;;;0.20;0.20;;;;;;;6.59;62.19;99483.66;4934846;29;20052;-60
2021/04/10 01:34:13;;;;;;;0.30;0.30;;;;;;;6.68;62.21;99484.41;4902754;29;20083;-61
2021/04/10 01:36:42;;;;;;;0.30;0.30;;;;;;;6.71;62.03;99484.00;4902742;29;20118;-58
2021/04/10 01:39:11;;;;;;;0.17;0.17;;;;;;;6.75;61.97;99487.22;4934120;29;20323;-58
2021/04/10 01:41:43;;;;;;;0.32;0.32;;;;;;;6.82;61.89;99493.59;4933865;29;20494;-59
2021/04/10 01:44:10;;;;;;;0.20;0.20;;;;;;;6.89;61.79;99489.06;4933742;29;20454;-59
2021/04/10 01:46:37;;;;;;;0.30;0.30;;;;;;;6.99;61.55;99500.50;4933962;29;20503;-59
2021/04/10 01:49:05;;;;;;;0.20;0.20;;;;;;;7.06;61.43;99497.81;4933476;29;20187;-60
2021/04/10 01:51:32;;;;;;;0.85;0.85;;;;;;;7.09;61.58;99494.69;4917603;29;20055;-60
2021/04/10 01:53:59;;;;;;;0.20;0.20;;;;;;;7.13;61.64;99503.34;4933776;29;20127;-60
2021/04/10 01:56:25;;;;;;;0.30;0.30;;;;;;;7.14;61.64;99505.03;4953551;28;20144;-62
2021/04/10 01:58:53;;;;;;;0.35;0.35;;;;;;;7.17;61.60;99512.84;4990785;28;20051;-60
2021/04/10 02:01:20;;;;;;;0.10;0.10;;;;;;;7.16;61.77;99517.44;5011238;28;20135;-59
2021/04/10 02:03:47;;;;;;;0.20;0.20;;;;;;;7.15;61.68;99513.03;5094972;28;20053;-59
2021/04/10 02:06:15;;;;;;;0.30;0.30;;;;;;;7.17;61.78;99513.69;5113220;28;20052;-59
2021/04/10 02:08:45;;;;;;;0.30;0.30;;;;;;;7.18;61.74;99515.41;5112853;28;20056;-59
2021/04/10 02:11:14;;;;;;;0.30;0.30;;;;;;;7.23;61.68;99520.25;5095344;28;20138;-59
2021/04/10 02:13:41;;;;;;;0.15;0.15;;;;;;;7.28;61.65;99522.41;5113449;28;20054;-59
2021/04/10 02:16:07;;;;;;;0.20;0.20;;;;;;;7.26;61.75;99522.59;5094806;28;20059;-59
2021/04/10 02:18:36;;;;;;;0.25;0.25;;;;;;;7.25;61.69;99523.63;5094883;28;20074;-58
2021/04/10 02:21:10;;;;;;;0.82;0.82;;;;;;;7.31;61.71;99522.84;5113307;28;20052;-61
2021/04/10 02:23:42;;;;;;;0.55;0.55;;;;;;;7.40;61.66;99536.38;5113094;28;20075;-61
2021/04/10 02:26:11;;;;;;;0.57;0.57;;;;;;;7.46;61.42;99539.16;5113069;28;20091;-61
2021/04/10 02:28:37;;;;;;;0.20;0.20;;;;;;;7.52;61.42;99537.53;5113199;28;20047;-62
2021/04/10 02:31:04;;;;;;;0.30;0.30;;;;;;;7.57;61.25;99543.25;5094754;28;20562;-62
2021/04/10 02:33:38;;;;;;;0.57;0.50;;;;;;;7.61;61.17;99538.22;5112982;28;20101;-60
2021/04/10 02:36:04;;;;;;;0.30;0.30;;;;;;;7.64;61.09;99541.44;5112899;28;20128;-62
2021/04/10 02:38:34;;;;;;;0.20;0.20;;;;;;;7.75;61.20;99542.75;5113198;28;20450;-62
2021/04/10 02:41:11;;;;;;;0.22;0.22;;;;;;;7.82;60.95;99545.56;5094468;28;20043;-60
2021/04/10 02:43:40;;;;;;;0.17;0.17;;;;;;;7.88;60.81;99544.75;5113158;28;20051;-60
2021/04/10 02:46:08;;;;;;;0.50;0.50;;;;;;;7.93;60.56;99539.53;5112965;28;20104;-60
2021/04/10 02:48:39;;;;;;;4.10;2.38;;;;;;;8.04;60.58;99546.34;5106052;28;20462;-60
2021/04/10 02:51:06;;;;;;;0.20;0.20;;;;;;;8.12;60.43;99548.06;5094403;28;20060;-61
2021/04/10 02:53:38;;;;;;;2.20;0.85;;;;;;;8.13;60.44;99545.13;5092385;28;20075;-62
2021/04/10 02:56:05;;;;;;;0.32;0.32;;;;;;;8.17;60.50;99543.69;5091725;28;20054;-61
2021/04/10 02:58:32;;;;;;;0.52;0.52;;;;;;;8.20;60.42;99539.69;5092074;28;20052;-62
2021/04/10 03:00:59;;;;;;;0.20;0.20;;;;;;;8.24;60.40;99547.31;5074001;28;20058;-60
2021/04/10 03:03:26;;;;;;;0.20;0.20;;;;;;;8.36;60.15;99555.78;5073976;28;20074;-60
2021/04/10 03:05:54;;;;;;;0.40;0.40;;;;;;;8.46;60.13;99560.06;5092292;28;20047;-60
2021/04/10 03:08:22;;;;;;;0.40;0.40;;;;;;;8.53;59.92;99560.97;5092052;28;20052;-59
2021/04/10 03:10:52;;;;;;;1.38;0.90;;;;;;;8.60;59.81;99570.06;5110853;28;20533;-59
2021/04/10 03:13:19;;;;;;;0.85;0.85;;;;;;;8.63;59.71;99566.91;5098779;28;20059;-58
2021/04/10 03:15:49;;;;;;;0.20;0.20;;;;;;;8.67;59.58;99573.66;5099304;28;20531;-61
2021/04/10 03:18:17;;;;;;;0.20;0.20;;;;;;;8.68;59.66;99580.81;5117264;27;20047;-60
2021/04/10 03:20:44;;;;;;;0.38;0.38;;;;;;;8.64;59.91;99584.16;5085240;28;20097;-61
2021/04/10 03:23:11;;;;;;;0.30;0.30;;;;;;;8.63;60.04;99583.31;5106257;28;20075;-61
2021/04/10 03:25:37;;;;;;;0.28;0.28;;;;;;;8.56;60.15;99583.28;5090805;28;20055;-61
2021/04/10 03:28:09;;;;;;;0.30;0.30;;;;;;;8.50;60.46;99583.25;5085708;28;20443;-60
2021/04/10 03:30:37;;;;;;;1.35;0.65;;;;;;;8.41;60.68;99580.66;5105618;28;20054;-60
2021/04/10 03:33:03;;;;;;;0.57;0.57;;;;;;;8.41;60.67;99580.66;5107725;28;20078;-62
2021/04/10 03:35:31;;;;;;;0.40;0.40;;;;;;;8.47;60.88;99587.25;5103482;28;20044;-61
2021/04/10 03:37:58;;;;;;;0.20;0.20;;;;;;;8.53;60.47;99580.13;5104830;28;20417;-62
2021/04/10 03:40:26;;;;;;;0.68;0.68;;;;;;;8.55;60.63;99587.09;5102646;28;20040;-61
2021/04/10 03:42:52;;;;;;;0.85;0.85;;;;;;;8.58;60.45;99577.59;5085340;28;20067;-60
2021/04/10 03:45:20;;;;;;;0.40;0.40;;;;;;;8.57;60.65;99573.19;5105930;28;20050;-60
2021/04/10 03:47:46;;;;;;;0.30;0.30;;;;;;;8.63;60.49;99580.59;5103167;28;20051;-60
2021/04/10 03:50:13;;;;;;;0.57;0.57;;;;;;;8.68;60.28;99574.50;5101128;28;20051;-60
2021/04/10 03:52:39;;;;;;;0.63;0.63;;;;;;;8.74;60.16;99580.00;5105793;28;20059;-60
2021/04/10 03:55:07;;;;;;;0.40;0.40;;;;;;;8.79;60.14;99581.28;5100708;28;20650;-58
2021/04/10 03:57:34;;;;;;;0.20;0.20;;;;;;;8.80;60.17;99583.81;5100693;28;20056;-62
2021/04/10 04:00:00;;;;;;;0.50;0.50;;;;;;;8.77;60.11;99589.69;5099136;28;20058;-63
2021/04/10 04:02:27;;;;;;;1.02;0.95;;;;;;;8.79;60.13;99586.75;5098166;28;20090;-60
2021/04/10 04:04:53;;;;;;;0.65;0.65;;;;;;;8.82;60.23;99586.34;5080200;28;20450;-59
2021/04/10 04:07:19;;;;;;;0.43;0.43;;;;;;;8.85;60.00;99592.28;5098725;28;20139;-62
2021/04/10 04:09:45;;;;;;;0.73;0.73;;;;;;;8.90;60.05;99597.13;5097979;28;20077;-60
2021/04/10 04:12:11;;;;;;;0.20;0.20;;;;;;;8.91;60.05;99601.56;5105309;28;20062;-59
2021/04/10 04:14:38;;;;;;;2.83;0.95;;;;;;;8.90;59.90;99591.66;5113586;27;20138;-61
2021/04/10 04:17:06;;;;;;;0.40;0.40;;;;;;;8.98;59.86;99596.97;5117970;28;20083;-63
2021/04/10 04:19:32;;;;;;;0.20;0.20;;;;;;;9.17;59.58;99613.66;5118239;28;20040;-62
2021/04/10 04:21:59;;;;;;;3.95;0.60;;;;;;;9.39;59.09;99622.56;5116212;28;20058;-59
2021/04/10 04:24:26;;;;;;;0.25;0.25;;;;;;;9.49;58.97;99625.75;5102909;28;20479;-63
2021/04/10 04:26:52;;;;;;;0.32;0.32;;;;;;;9.57;58.80;99622.81;5097500;28;20083;-63
2021/04/10 04:29:17;;;;;;;0.40;0.40;;;;;;;9.71;58.70;99629.16;5115621;28;20060;-61
2021/04/10 04:31:43;;;;;;;0.10;0.10;;;;;;;9.92;58.42;99627.28;5115232;28;20402;-61
2021/04/10 04:34:09;;;;;;;0.40;0.30;;;;;;;10.07;58.09;99621.56;5115384;28;20063;-61
2021/04/10 04:36:35;;;;;;;0.40;0.40;;;;;;;10.27;57.63;99632.56;5114973;28;20055;-61
2021/04/10 04:39:01;;;;;;;1.27;0.63;;;;;;;10.45;57.41;99635.53;5116354;27;20138;-61
2021/04/10 04:41:26;;;;;;;0.40;0.40;;;;;;;10.60;57.47;99627.03;5135621;27;20188;-62
2021/04/10 04:43:52;;;;;;;0.20;0.20;;;;;;;10.70;57.14;99637.56;5135580;27;20058;-61
2021/04/10 04:46:18;;;;;;;1.05;1.00;;;;;;;10.77;57.08;99638.38;5135450;27;20055;-61
2021/04/10 04:48:44;;;;;;;1.27;0.95;;;;;;;10.82;57.18;99638.59;5135444;27;20105;-60
2021/04/10 04:51:13;;;;;;;0.20;0.20;;;;;;;10.81;57.64;99636.91;5116986;27;20386;-61
2021/04/10 04:53:39;;;;;;;0.95;0.82;;;;;;;10.76;57.85;99636.72;5135278;27;20254;-61
2021/04/10 04:56:05;;;;;;;0.43;0.43;;;;;;;10.75;57.74;99635.03;5134636;27;20492;-60
2021/04/10 04:58:31;;;;;;;0.75;0.75;;;;;;;10.80;57.59;99637.13;5104128;27;20052;-61
2021/04/10 05:00:56;;;;;;;1.00;0.75;;;;;;;10.86;57.72;99630.75;5090499;28;20544;-61
2021/04/10 05:03:22;;;;;;;1.70;0.90;;;;;;;10.98;57.26;99625.41;5091988;28;20517;-60
2021/04/10 05:05:48;;;;;;;0.40;0.40;;;;;;;11.22;56.86;99627.44;5114430;28;20050;-60
2021/04/10 05:08:14;;;;;;;0.38;0.38;;;;;;;11.44;56.51;99629.00;5113903;28;20058;-60
2021/04/10 05:10:39;;;;;;;0.22;0.22;;;;;;;11.56;56.45;99630.00;5128362;27;20043;-60
2021/04/10 05:13:05;;;;;;;0.70;0.70;;;;;;;11.55;56.63;99634.66;5135120;27;20526;-60
2021/04/10 05:15:31;;;;;;;2.50;0.95;;;;;;;11.67;56.29;99631.19;5116236;27;20062;-62
2021/04/10 05:17:57;;;;;;;1.00;1.00;;;;;;;11.78;55.90;99630.50;5134948;27;20050;-60
2021/04/10 05:20:23;;;;;;;1.00;0.70;;;;;;;11.78;56.17;99638.75;5121339;27;20044;-60
2021/04/10 05:22:54;;;;;;;0.30;0.30;;;;;;;11.66;56.68;99629.50;5102224;28;20075;-61
2021/04/10 05:25:19;;;;;;;0.43;0.43;;;;;;;11.49;57.03;99634.69;5118353;27;20134;-61
2021/04/10 05:27:48;;;;;;;1.65;1.17;;;;;;;11.38;57.49;99636.22;5134838;27;20089;-61
2021/04/10 05:30:14;;;;;;;1.15;0.75;;;;;;;11.43;57.14;99630.91;5134248;27;20043;-63
2021/04/10 05:32:40;;;;;;;0.55;0.55;;;;;;;11.50;57.04;99631.72;5134233;27;20126;-60
2021/04/10 05:35:06;;;;;;;0.20;0.20;;;;;;;11.51;57.20;99630.66;5134417;27;20047;-62
2021/04/10 05:38:00;;;;;;;0.30;0.30;;;;;;;11.50;57.00;99639.16;5134028;27;20407;-65
2021/04/10 05:40:26;;;;;;;0.20;0.20;;;;;;;11.44;57.33;99632.63;5098316;27;20128;-62
2021/04/10 05:42:52;;;;;;;2.28;0.95;;;;;;;11.40;57.43;99634.13;5134139;27;20232;-58
2021/04/10 05:45:18;;;;;;;0.68;0.65;;;;;;;11.30;57.62;99634.56;5115585;27;20535;-59
2021/04/10 05:47:44;;;;;;;0.52;0.52;;;;;;;11.24;57.78;99627.22;5133730;27;20047;-60
2021/04/10 05:50:11;;;;;;;0.30;0.30;;;;;;;11.25;57.77;99633.53;5133649;27;20054;-60
2021/04/10 05:52:37;;;;;;;0.25;0.25;;;;;;;11.40;57.58;99645.13;5113165;27;20052;-60
2021/04/10 05:55:04;;;;;;;0.55;0.55;;;;;;;11.58;56.89;99639.69;5122839;27;20043;-61
2021/04/10 05:57:30;;;;;;;0.55;0.55;;;;;;;11.73;56.41;99647.66;5134115;27;20462;-59
2021/04/10 05:59:56;;;;;;;0.20;0.20;;;;;;;11.86;56.26;99640.38;5133975;27;20054;-58
2021/04/10 06:02:21;;;;;;;0.10;0.10;;;;;;;11.89;56.33;99640.75;5134301;27;20508;-58
2021/04/10 06:04:47;;;;;;;0.50;0.50;;;;;;;11.86;56.31;99645.88;5133806;27;20057;-59
2021/04/10 06:07:13;;;;;;;0.95;0.70;;;;;;;11.79;56.17;99643.16;5133688;27;20043;-61
2021/04/10 06:09:39;;;;;;;0.68;0.68;;;;;;;11.78;56.28;99647.00;5133148;27;20054;-63
2021/04/10 06:12:05;;;;;;;0.40;0.40;;;;;;;11.92;56.25;99648.59;5098605;27;20044;-61
2021/04/10 06:14:31;;;;;;;0.40;0.40;;;;;;;12.12;55.83;99644.88;5133905;27;20531;-61
2021/04/10 06:16:57;;;;;;;0.57;0.57;;;;;;;12.29;55.74;99642.38;5133741;27;20047;-59
2021/04/10 06:19:22;;;;;;;0.25;0.25;;;;;;;12.36;55.52;99639.56;5133505;27;20047;-58
2021/04/10 06:21:49;;;;;;;0.60;0.60;;;;;;;12.37;55.63;99646.78;5114475;27;20057;-58
2021/04/10 06:24:15;;;;;;;1.05;0.95;;;;;;;12.37;55.41;99641.25;5106423;27;20539;-60
2021/04/10 06:26:42;;;;;;;0.63;0.63;;;;;;;12.34;55.45;99637.03;5133323;27;20522;-59
2021/04/10 06:29:09;;;;;;;0.82;0.73;;;;;;;12.38;55.43;99631.91;5133724;27;20517;-59
2021/04/10 06:31:35;;;;;;;0.70;0.70;;;;;;;12.37;55.82;99628.31;5133510;27;20100;-58
2021/04/10 06:34:01;;;;;;;0.30;0.30;;;;;;;12.38;55.95;99624.50;5133157;27;20443;-61
2021/04/10 06:36:27;;;;;;;0.45;0.45;;;;;;;12.43;55.86;99635.69;5098454;27;20229;-60
2021/04/10 06:38:54;;;;;;;1.27;1.27;;;;;;;12.40;55.68;99638.06;5132521;27;20051;-65
2021/04/10 06:41:21;;;;;;;0.45;0.45;;;;;;;12.37;55.87;99652.28;5114476;27;20092;-59
2021/04/10 06:43:47;;;;;;;0.20;0.20;;;;;;;12.35;55.96;99648.88;5133221;27;20111;-60
2021/04/10 06:46:13;;;;;;;0.20;0.20;;;;;;;12.36;55.83;99650.59;5096023;27;20044;-58
2021/04/10 06:48:40;;;;;;;0.70;0.50;;;;;;;12.30;55.76;99643.22;5132916;27;20100;-59
2021/04/10 06:51:10;;;;;;;0.98;0.98;;;;;;;12.29;56.02;99658.91;5114521;27;20046;-59
2021/04/10 06:53:42;;;;;;;0.13;0.13;;;;;;;12.27;56.08;99656.38;5133002;27;20046;-58
2021/04/10 06:56:09;;;;;;;2.17;0.80;;;;;;;12.36;55.85;99650.59;5132622;27;20404;-61
2021/04/10 06:58:37;;;;;;;0.20;0.20;;;;;;;12.54;55.19;99656.13;5132783;27;20042;-60
2021/04/10 07:01:03;;;;;;;0.47;0.47;;;;;;;12.75;54.76;99665.00;5132939;27;20145;-58
2021/04/10 07:03:29;;;;;;;1.00;0.38;;;;;;;12.91;54.50;99664.44;5132843;27;20416;-60
2021/04/10 07:05:55;;;;;;;0.20;0.20;;;;;;;13.06;54.12;99668.69;5133161;27;20152;-59
2021/04/10 07:08:24;;;;;;;0.10;0.10;;;;;;;13.11;54.12;99663.34;5132602;28;20073;-57
2021/04/10 07:10:50;;;;;;;0.43;0.43;;;;;;;13.21;54.00;99666.41;5132425;28;20054;-58
2021/04/10 07:13:18;;;;;;;2.50;0.43;;;;;;;13.28;53.86;99663.56;5132540;28;20054;-60
2021/04/10 07:15:44;;;;;;;5.32;0.82;;;;;;;13.29;53.90;99670.75;5132952;28;20055;-60
2021/04/10 07:18:10;;;;;;;0.52;0.47;;;;;;;13.17;54.34;99673.47;5097259;28;20146;-58
2021/04/10 07:20:36;;;;;;;0.28;0.28;;;;;;;12.96;54.48;99669.25;5133111;28;20547;-62
2021/04/10 07:23:04;;;;;;;0.30;0.30;;;;;;;12.78;55.11;99670.09;5114580;28;20051;-60
2021/04/10 07:25:32;;;;;;;0.93;0.93;;;;;;;12.67;55.27;99668.91;5132307;28;20449;-59
2021/04/10 07:28:29;;;;;;;0.35;0.35;;;;;;;12.56;55.42;99662.25;5132224;28;20074;-56
2021/04/10 07:31:04;;;;;;;0.85;0.43;;;;;;;12.56;55.36;99667.75;5132553;28;20047;-58
2021/04/10 07:33:45;;;;;;;0.30;0.30;;;;;;;12.54;55.44;99677.31;5099592;28;20048;-58
2021/04/10 07:36:13;;;;;;;0.70;0.70;;;;;;;12.62;55.15;99672.38;5132340;28;20042;-58
2021/04/10 07:38:41;;;;;;;0.50;0.50;;;;;;;12.77;54.52;99674.75;5132298;28;20055;-58
2021/04/10 07:41:13;;;;;;;1.25;1.13;;;;;;;12.98;54.02;99672.63;5131832;28;20055;-59
2021/04/10 07:43:40;;;;;;;0.13;0.13;;;;;;;13.12;53.89;99676.06;5132401;28;20043;-62
2021/04/10 07:46:27;;;;;;;0.20;0.20;;;;;;;13.27;53.64;99671.00;5132261;28;20051;-60
2021/04/10 07:49:09;;;;;;;0.55;0.40;;;;;;;13.40;53.60;99669.19;5132590;28;20043;-59
2021/04/10 07:51:51;;;;;;;0.77;0.70;;;;;;;13.57;52.95;99669.38;5132675;28;20081;-59
2021/04/10 07:54:26;;;;;;;0.38;0.38;;;;;;;13.65;52.91;99675.41;5132131;28;20055;-60
2021/04/10 07:56:52;;;;;;;0.20;0.20;;;;;;;13.61;53.33;99679.69;5095972;28;20054;-60
2021/04/10 07:59:18;;;;;;;0.45;0.38;;;;;;;13.58;53.11;99684.84;5100711;27;20074;-61
2021/04/10 08:01:44;;;;;;;0.43;0.43;;;;;;;13.53;53.46;99679.19;5136441;27;20074;-59
2021/04/10 08:04:14;;;;;;;0.25;0.25;;;;;;;13.49;53.35;99676.91;5136343;27;20055;-62
2021/04/10 08:06:53;;;;;;;0.47;0.47;;;;;;;13.49;53.30;99671.38;5135963;27;20055;-60
2021/04/10 08:09:32;;;;;;;1.75;0.30;;;;;;;13.57;53.44;99667.44;5117205;27;20389;-59
2021/04/10 08:11:58;;;;;;;0.20;0.20;;;;;;;13.69;52.92;99670.25;5135774;27;20103;-61
2021/04/10 08:14:25;;;;;;;0.65;0.40;;;;;;;13.76;53.13;99679.28;5136137;27;20058;-60
2021/04/10 08:16:53;;;;;;;0.45;0.45;;;;;;;13.82;53.03;99669.22;5117264;27;20155;-63
2021/04/10 08:19:32;;;;;;;0.73;0.35;;;;;;;13.81;53.25;99675.84;5135892;27;20134;-60
2021/04/10 08:21:58;;;;;;;0.60;0.60;;;;;;;13.77;53.16;99680.13;5099442;27;20510;-60
2021/04/10 08:24:29;;;;;;;0.40;0.40;;;;;;;13.70;53.49;99676.63;5134841;27;20055;-59
2021/04/10 08:27:01;;;;;;;0.20;0.20;;;;;;;13.58;53.80;99669.13;5133076;27;20043;-61
2021/04/10 08:29:28;;;;;;;0.50;0.50;;;;;;;13.49;53.61;99676.06;5094351;28;20050;-59
2021/04/10 08:31:55;;;;;;;0.98;0.63;;;;;;;13.45;53.89;99685.88;5094337;28;20048;-58
2021/04/10 08:34:21;;;;;;;1.02;0.82;;;;;;;13.36;53.78;99684.50;5096893;28;20147;-59
2021/04/10 08:36:56;;;;;;;0.30;0.30;;;;;;;13.19;53.97;99674.09;5094860;28;20150;-58
2021/04/10 08:39:27;;;;;;;0.50;0.50;;;;;;;13.00;54.68;99683.41;5099895;28;20056;-59
2021/04/10 08:41:56;;;;;;;0.30;0.30;;;;;;;12.90;54.63;99690.31;5114781;28;20048;-59
2021/04/10 08:44:28;;;;;;;0.10;0.10;;;;;;;12.81;54.98;99686.19;5112643;28;20048;-58
2021/04/10 08:46:54;;;;;;;0.30;0.30;;;;;;;12.76;54.60;99691.50;5114854;28;20047;-57
2021/04/10 08:49:21;;;;;;;0.70;0.70;;;;;;;12.75;54.66;99684.31;5096698;28;20056;-60
2021/04/10 08:51:52;;;;;;;0.45;0.45;;;;;;;12.79;54.52;99689.16;5114852;28;20100;-59
2021/04/10 08:54:20;;;;;;;0.55;0.55;;;;;;;12.76;54.64;99683.25;5117083;27;20051;-58
2021/04/10 08:56:49;;;;;;;1.90;0.75;;;;;;;12.79;54.50;99685.53;5135038;27;20058;-58
2021/04/10 08:59:20;;;;;;;1.10;0.90;;;;;;;12.81;54.38;99683.41;5134894;27;20043;-57
2021/04/10 09:02:06;;;;;;;0.20;0.20;;;;;;;12.83;54.04;99683.19;5134852;27;20523;-58
2021/04/10 09:04:59;;;;;;;0.57;0.57;;;;;;;12.85;54.17;99683.78;5135117;27;20075;-57
2021/04/10 09:07:47;;;;;;;0.15;0.15;;;;;;;12.83;53.97;99678.50;5031817;28;20069;-59
2021/04/10 09:10:28;;;;;;;0.30;0.30;;;;;;;12.86;53.62;99679.97;4952845;29;20138;-60
2021/04/10 09:13:06;;;;;;;0.20;0.20;;;;;;;12.95;53.62;99684.94;4953714;29;20039;-57
2021/04/10 09:15:33;;;;;;;0.75;0.40;;;;;;;13.02;53.44;99689.56;4943682;29;20079;-58
2021/04/10 09:18:00;;;;;;;0.30;0.30;;;;;;;13.08;53.25;99686.72;4934334;29;20056;-59
2021/04/10 09:20:52;;;;;;;0.10;0.10;;;;;;;13.17;53.17;99695.50;4934728;29;20438;-59
2021/04/10 09:23:18;;;;;;;0.32;0.32;;;;;;;13.29;52.86;99701.97;4931923;29;20138;-61
2021/04/10 09:26:15;;;;;;;0.52;0.52;;;;;;;13.44;52.52;99689.69;4947365;29;20145;-60
2021/04/10 09:28:56;;;;;;;0.20;0.20;;;;;;;13.51;52.53;99698.72;4953777;29;20070;-61
2021/04/10 09:31:40;;;;;;;2.72;1.08;;;;;;;13.62;52.21;99686.91;4952980;29;20055;-60
2021/04/10 09:34:26;;;;;;;1.13;0.53;;;;;;;13.79;52.08;99689.84;4952810;29;20055;-59
2021/04/10 09:36:52;;;;;;;0.40;0.40;;;;;;;14.01;51.48;99683.81;4952744;29;20059;-61
2021/04/10 09:40:03;;;;;;;0.50;0.50;;;;;;;14.17;51.20;99685.03;4952760;29;20051;-61
2021/04/10 09:42:38;;;;;;;0.10;0.10;;;;;;;14.21;51.45;99686.25;4950100;29;20571;-61
2021/04/10 09:45:10;;;;;;;0.52;0.38;;;;;;;14.19;51.51;99691.16;5015108;28;20049;-59
2021/04/10 09:47:54;;;;;;;0.20;0.20;;;;;;;14.22;51.59;99689.84;5098113;27;20051;-59
2021/04/10 09:50:24;;;;;;;0.10;0.10;;;;;;;14.18;51.38;99695.03;5116566;27;20142;-59
2021/04/10 09:52:59;;;;;;;0.20;0.20;;;;;;;14.11;51.63;99688.75;5107903;28;20108;-60
2021/04/10 09:55:30;;;;;;;0.43;0.43;;;;;;;14.04;51.97;99697.13;5126611;27;20055;-60
2021/04/10 09:57:57;;;;;;;0.30;0.30;;;;;;;14.01;52.15;99695.69;5133906;27;20061;-58
2021/04/10 10:00:27;;;;;;;0.20;0.20;;;;;;;14.06;51.98;99700.50;5133653;27;20047;-60
2021/04/10 10:02:54;;;;;;;0.93;0.65;;;;;;;14.04;52.11;99693.53;5133735;27;20059;-59
2021/04/10 10:05:21;;;;;;;0.20;0.20;;;;;;;14.00;52.05;99687.63;5115661;27;20047;-62
2021/04/10 10:07:47;;;;;;;0.50;0.50;;;;;;;13.98;52.08;99693.38;5133719;27;20051;-65
2021/04/10 10:10:14;;;;;;;0.30;0.30;;;;;;;13.94;52.25;99694.97;5099727;27;20126;-63
2021/04/10 10:12:41;;;;;;;0.20;0.20;;;;;;;13.92;52.26;99696.25;5115964;27;20040;-64
2021/04/10 10:15:23;;;;;;;0.70;0.70;;;;;;;13.94;52.28;99692.19;5101762;28;20048;-60
2021/04/10 10:17:49;;;;;;;2.58;0.43;;;;;;;14.05;52.04;99690.53;5098626;28;20062;-59
2021/04/10 10:20:16;;;;;;;0.65;0.45;;;;;;;14.25;51.80;99681.94;5078028;28;20067;-60
2021/04/10 10:22:43;;;;;;;0.60;0.55;;;;;;;14.52;51.12;99681.50;5096006;28;20054;-59
2021/04/10 10:25:10;;;;;;;0.47;0.40;;;;;;;14.77;50.68;99681.28;5100077;27;20435;-59
2021/04/10 10:27:46;;;;;;;0.10;0.10;;;;;;;14.91;50.53;99687.38;5100083;28;20071;-60
2021/04/10 10:30:15;;;;;;;0.50;0.30;;;;;;;15.00;50.37;99690.63;5097170;28;20610;-62
2021/04/10 10:32:51;;;;;;;1.90;0.50;;;;;;;15.02;50.43;99694.84;5097153;28;20056;-60
2021/04/10 10:35:19;;;;;;;0.28;0.22;;;;;;;15.03;50.30;99693.75;5077685;28;20077;-61
2021/04/10 10:37:51;;;;;;;0.30;0.30;;;;;;;15.07;50.60;99699.63;5098645;28;20047;-59
2021/04/10 10:40:28;;;;;;;0.10;0.10;;;;;;;15.05;50.51;99694.34;5099172;27;20036;-61
2021/04/10 10:43:05;;;;;;;1.27;0.52;;;;;;;15.01;50.67;99690.38;5100427;28;20052;-61
2021/04/10 10:45:41;;;;;;;0.55;0.55;;;;;;;14.95;50.76;99696.06;5099662;28;20571;-61
2021/04/10 10:48:25;;;;;;;0.22;0.22;;;;;;;14.83;51.16;99682.25;5096251;27;20509;-62
2021/04/10 10:50:58;;;;;;;0.20;0.20;;;;;;;14.81;50.93;99687.16;5099024;28;20134;-62
2021/04/10 10:53:26;;;;;;;0.95;0.63;;;;;;;14.81;51.21;99681.63;5097058;28;20433;-62
2021/04/10 10:56:08;;;;;;;0.20;0.20;;;;;;;14.87;50.90;99672.38;5085631;28;20048;-60
2021/04/10 10:58:39;;;;;;;1.38;1.30;;;;;;;14.92;51.08;99675.25;5099249;28;20064;-61
2021/04/10 11:01:19;;;;;;;0.20;0.20;;;;;;;14.93;50.75;99665.88;5098751;28;20082;-60
2021/04/10 11:04:12;;;;;;;0.50;0.50;;;;;;;14.96;50.66;99668.16;5097113;28;20044;-62
2021/04/10 11:06:45;;;;;;;0.22;0.22;;;;;;;14.96;50.79;99676.44;5099449;28;20054;-60
2021/04/10 11:09:17;;;;;;;0.20;0.20;;;;;;;14.96;50.63;99665.38;5095511;28;20071;-62
2021/04/10 11:11:48;;;;;;;0.15;0.15;;;;;;;14.97;50.74;99678.16;5091666;28;20143;-59
2021/04/10 11:14:29;;;;;;;0.20;0.20;;;;;;;14.95;50.71;99677.53;5092237;28;20044;-60
2021/04/10 11:16:57;;;;;;;0.65;0.47;;;;;;;14.94;50.86;99670.31;5087087;28;20075;-61
2021/04/10 11:19:36;;;;;;;0.20;0.20;;;;;;;14.96;50.83;99673.69;5093844;28;20079;-60
2021/04/10 11:22:05;;;;;;;0.20;0.20;;;;;;;15.00;50.73;99674.03;5096843;28;20040;-61
2021/04/10 11:24:35;;;;;;;0.20;0.20;;;;;;;15.01;50.69;99671.00;5060221;28;20536;-60
2021/04/10 11:27:13;;;;;;;0.60;0.35;;;;;;;15.05;50.40;99668.63;5099181;28;20509;-60
2021/04/10 11:29:51;;;;;;;0.10;0.10;;;;;;;15.01;50.47;99668.25;5082486;28;20065;-59
2021/04/10 11:32:22;;;;;;;0.35;0.35;;;;;;;15.05;50.64;99668.63;5101045;28;20109;-65
2021/04/10 11:34:48;;;;;;;0.70;0.70;;;;;;;15.03;50.53;99665.25;5099139;28;20075;-60
2021/04/10 11:37:16;;;;;;;0.20;0.20;;;;;;;15.03;50.76;99668.88;5081064;28;20047;-60
2021/04/10 11:39:52;;;;;;;0.60;0.60;;;;;;;15.05;50.49;99672.22;5101072;28;20112;-62
2021/04/10 11:42:23;;;;;;;0.57;0.57;;;;;;;15.06;50.75;99673.91;5096043;28;20051;-63
2021/04/10 11:44:48;;;;;;;0.30;0.30;;;;;;;15.07;50.54;99675.59;5105247;28;20066;-61
2021/04/10 11:47:29;;;;;;;0.10;0.10;;;;;;;15.13;50.41;99672.94;5101929;28;20044;-62
2021/04/10 11:50:16;;;;;;;0.20;0.20;;;;;;;15.19;50.10;99669.19;5100348;28;20521;-62